createdAt,value
2023-07-18T00:01:34.483Z,1.13
2023-07-18T00:04:01.148Z,1.00
2023-07-18T00:06:27.798Z,1.10
2023-07-18T00:08:54.387Z,1.15
2023-07-18T00:11:23.450Z,1.10
2023-07-18T00:13:50.337Z,1.50
2023-07-18T00:16:17.135Z,1.25
2023-07-18T00:18:43.715Z,1.20
2023-07-18T00:21:11.163Z,1.70
2023-07-18T00:23:37.748Z,1.53
2023-07-18T00:26:04.329Z,1.27
2023-07-18T00:28:30.852Z,1.55
2023-07-18T00:30:57.679Z,1.40
2023-07-18T00:33:25.115Z,1.38
2023-07-18T00:35:51.640Z,1.33
2023-07-18T00:38:18.210Z,1.60
2023-07-18T00:40:48.975Z,1.25
2023-07-18T00:43:16.220Z,1.13
2023-07-18T00:45:45.366Z,1.33
2023-07-18T00:48:14.984Z,1.10
2023-07-18T00:50:41.627Z,1.00
2023-07-18T00:53:08.294Z,1.00
2023-07-18T00:55:37.548Z,0.93
2023-07-18T00:58:04.547Z,1.17
2023-07-18T01:00:31.167Z,0.90
2023-07-18T01:02:57.873Z,1.05
2023-07-18T01:05:24.510Z,1.27
2023-07-18T01:07:51.598Z,1.08
2023-07-18T01:10:28.340Z,0.90
2023-07-18T01:12:57.109Z,0.90
2023-07-18T01:15:25.048Z,0.75
2023-07-18T01:17:52.244Z,0.80
2023-07-18T01:20:22.531Z,1.20
2023-07-18T01:22:51.297Z,0.85
2023-07-18T01:25:18.491Z,0.93
2023-07-18T01:27:45.977Z,1.10
2023-07-18T01:30:13.647Z,0.88
2023-07-18T01:32:40.695Z,1.10
2023-07-18T01:35:09.300Z,0.80
2023-07-18T01:37:37.390Z,1.33
2023-07-18T01:40:09.404Z,0.82
2023-07-18T01:42:36.742Z,1.10
2023-07-18T01:45:04.503Z,1.20
2023-07-18T01:47:34.726Z,1.08
2023-07-18T01:50:04.563Z,1.07
2023-07-18T01:52:32.620Z,1.00
2023-07-18T01:55:00.466Z,1.27
2023-07-18T01:57:32.063Z,1.20
2023-07-18T02:00:00.303Z,0.63
2023-07-18T02:02:29.026Z,1.10
2023-07-18T02:04:59.634Z,0.90
2023-07-18T02:07:26.905Z,1.30
2023-07-18T02:09:53.653Z,1.17
2023-07-18T02:12:20.686Z,1.40
2023-07-18T02:14:47.697Z,1.03
2023-07-18T02:17:14.823Z,0.95
2023-07-18T02:19:41.444Z,1.08
2023-07-18T02:22:08.033Z,1.30
2023-07-18T02:24:34.864Z,1.48
2023-07-18T02:27:03.993Z,1.03
2023-07-18T02:29:30.721Z,1.17
2023-07-18T02:31:57.794Z,1.48
2023-07-18T02:34:27.036Z,1.10
2023-07-18T02:36:54.972Z,1.27
2023-07-18T02:39:21.549Z,1.67
2023-07-18T02:41:48.487Z,1.60
2023-07-18T02:44:15.019Z,1.20
2023-07-18T02:46:42.134Z,1.60
2023-07-18T02:49:08.750Z,2.13
2023-07-18T02:51:35.334Z,1.53
2023-07-18T02:54:01.921Z,1.70
2023-07-18T02:56:28.458Z,1.88
2023-07-18T02:58:55.034Z,1.90
2023-07-18T03:01:21.902Z,1.90
2023-07-18T03:03:48.741Z,2.47
2023-07-18T03:06:16.012Z,2.33
2023-07-18T03:08:42.966Z,1.83
2023-07-18T03:11:09.981Z,1.90
2023-07-18T03:13:37.781Z,2.00
2023-07-18T03:16:05.992Z,2.20
2023-07-18T03:18:33.077Z,1.88
2023-07-18T03:20:59.767Z,1.98
2023-07-18T03:23:29.488Z,1.88
2023-07-18T03:25:56.407Z,1.80
2023-07-18T03:28:24.025Z,1.37
2023-07-18T03:30:50.631Z,1.95
2023-07-18T03:33:17.708Z,1.95
2023-07-18T03:35:44.327Z,1.83
2023-07-18T03:38:10.891Z,1.42
2023-07-18T03:40:37.517Z,1.43
2023-07-18T03:43:05.081Z,1.25
2023-07-18T03:45:31.762Z,1.15
2023-07-18T03:47:58.456Z,1.20
2023-07-18T03:50:25.113Z,1.85
2023-07-18T03:52:51.701Z,1.70
2023-07-18T03:55:18.323Z,1.80
2023-07-18T03:57:44.868Z,1.63
2023-07-18T04:00:15.653Z,1.77
2023-07-18T04:02:46.453Z,1.70
2023-07-18T04:05:15.079Z,1.80
2023-07-18T04:07:42.565Z,1.70
2023-07-18T04:10:09.676Z,1.40
2023-07-18T04:12:36.228Z,1.42
2023-07-18T04:15:02.928Z,1.35
2023-07-18T04:17:29.572Z,1.73
2023-07-18T04:20:00.286Z,1.23
2023-07-18T04:22:32.435Z,1.90
2023-07-18T04:24:59.120Z,2.13
2023-07-18T04:27:27.735Z,2.28
2023-07-18T04:29:55.001Z,2.07
2023-07-18T04:32:21.596Z,1.38
2023-07-18T04:34:48.559Z,2.03
2023-07-18T04:37:15.228Z,1.25
2023-07-18T04:39:41.800Z,1.70
2023-07-18T04:42:08.476Z,2.10
2023-07-18T04:44:35.079Z,1.75
2023-07-18T04:47:01.705Z,2.10
2023-07-18T04:49:30.326Z,2.22
2023-07-18T04:51:56.892Z,1.95
2023-07-18T04:54:23.566Z,2.20
2023-07-18T04:56:54.339Z,2.10
2023-07-18T04:59:21.700Z,1.75
2023-07-18T05:01:52.567Z,1.92
2023-07-18T05:04:19.216Z,1.52
2023-07-18T05:06:46.834Z,1.93
2023-07-18T05:09:13.442Z,1.90
2023-07-18T05:11:40.116Z,1.77
2023-07-18T05:14:08.465Z,2.33
2023-07-18T05:16:35.572Z,2.50
2023-07-18T05:19:02.122Z,2.10
2023-07-18T05:21:28.808Z,1.98
2023-07-18T05:23:55.341Z,2.22
2023-07-18T05:26:21.996Z,2.10
2023-07-18T05:28:48.536Z,1.88
2023-07-18T05:31:15.585Z,2.37
2023-07-18T05:33:42.616Z,1.98
2023-07-18T05:36:09.200Z,1.70
2023-07-18T05:38:35.942Z,2.13
2023-07-18T05:41:03.176Z,2.38
2023-07-18T05:43:30.133Z,2.00
2023-07-18T05:45:57.785Z,1.90
2023-07-18T05:48:24.565Z,1.48
2023-07-18T05:50:51.163Z,2.42
2023-07-18T05:53:17.717Z,2.00
2023-07-18T05:55:44.299Z,2.23
2023-07-18T05:58:10.997Z,2.00
2023-07-18T06:00:37.541Z,1.85
2023-07-18T06:03:04.333Z,2.08
2023-07-18T06:05:31.080Z,1.80
2023-07-18T06:07:57.691Z,2.13
2023-07-18T06:10:24.270Z,1.92
2023-07-18T06:12:50.858Z,1.77
2023-07-18T06:15:17.490Z,2.03
2023-07-18T06:17:44.154Z,1.75
2023-07-18T06:20:14.771Z,1.50
2023-07-18T06:22:41.967Z,1.67
2023-07-18T06:25:09.037Z,1.98
2023-07-18T06:27:35.600Z,1.63
2023-07-18T06:30:02.441Z,1.50
2023-07-18T06:32:30.045Z,1.90
2023-07-18T06:35:00.724Z,1.70
2023-07-18T06:37:33.024Z,1.48
2023-07-18T06:39:59.611Z,1.58
2023-07-18T06:42:26.207Z,1.80
2023-07-18T06:44:52.846Z,1.43
2023-07-18T06:47:19.551Z,1.70
2023-07-18T06:49:46.135Z,1.67
2023-07-18T06:52:12.737Z,1.58
2023-07-18T06:54:39.903Z,1.55
2023-07-18T06:57:07.062Z,1.50
2023-07-18T06:59:33.779Z,2.00
2023-07-18T07:02:00.316Z,1.60
2023-07-18T07:04:26.923Z,1.48
2023-07-18T07:06:53.517Z,1.77
2023-07-18T07:09:20.091Z,1.70
2023-07-18T07:11:46.676Z,1.63
2023-07-18T07:14:13.357Z,2.10
2023-07-18T07:16:40.447Z,2.03
2023-07-18T07:19:07.645Z,1.05
2023-07-18T07:21:34.395Z,1.40
2023-07-18T07:24:01.972Z,1.58
2023-07-18T07:26:28.755Z,1.50
2023-07-18T07:28:55.427Z,1.50
2023-07-18T07:31:22.290Z,1.58
2023-07-18T07:33:49.265Z,1.07
2023-07-18T07:36:16.268Z,1.50
2023-07-18T07:38:42.976Z,1.02
2023-07-18T07:41:09.523Z,0.90
2023-07-18T07:43:36.096Z,1.00
2023-07-18T07:46:02.746Z,0.60
2023-07-18T07:48:29.420Z,0.90
2023-07-18T07:50:57.085Z,0.70
2023-07-18T07:53:24.197Z,0.70
2023-07-18T07:55:50.785Z,0.50
2023-07-18T07:58:17.331Z,0.60
2023-07-18T08:00:43.887Z,0.60
2023-07-18T08:03:10.577Z,0.60
2023-07-18T08:05:37.214Z,1.15
2023-07-18T08:08:04.596Z,0.63
2023-07-18T08:10:31.282Z,0.60
2023-07-18T08:12:58.202Z,0.60
2023-07-18T08:15:27.565Z,0.52
2023-07-18T08:17:56.265Z,0.80
2023-07-18T08:20:23.913Z,0.47
2023-07-18T08:22:50.614Z,0.60
2023-07-18T08:25:17.562Z,0.60
2023-07-18T08:27:44.258Z,0.52
2023-07-18T08:30:11.415Z,0.70
2023-07-18T08:32:39.087Z,0.40
2023-07-18T08:35:06.309Z,0.40
2023-07-18T08:37:33.008Z,0.40
2023-07-18T08:39:59.861Z,0.30
2023-07-18T08:42:28.224Z,0.28
2023-07-18T08:44:55.160Z,0.40
2023-07-18T08:47:26.395Z,0.53
2023-07-18T08:49:53.703Z,0.38
2023-07-18T08:52:20.341Z,0.52
2023-07-18T08:54:48.409Z,0.30
2023-07-18T08:57:17.777Z,0.32
2023-07-18T08:59:45.549Z,0.20
2023-07-18T09:02:12.294Z,0.30
2023-07-18T09:04:38.974Z,0.30
2023-07-18T09:07:05.551Z,0.20
2023-07-18T09:09:32.160Z,0.40
2023-07-18T09:12:05.197Z,0.40
2023-07-18T09:14:34.834Z,0.30
2023-07-18T09:17:05.052Z,0.32
2023-07-18T09:19:43.165Z,0.30
2023-07-18T09:22:11.749Z,0.30
2023-07-18T09:24:39.114Z,0.50
2023-07-18T09:27:14.650Z,0.45
2023-07-18T09:29:46.282Z,0.40
2023-07-18T09:32:22.650Z,0.60
2023-07-18T09:35:02.227Z,0.50
2023-07-18T09:37:32.522Z,0.50
2023-07-18T09:40:00.174Z,0.40
2023-07-18T09:42:28.347Z,0.40
2023-07-18T09:47:32.402Z,0.60
2023-07-18T09:49:59.978Z,0.43
2023-07-18T09:52:28.046Z,0.70
2023-07-18T09:54:54.889Z,0.65
2023-07-18T09:57:23.075Z,0.60
2023-07-18T09:59:49.951Z,0.50
2023-07-18T10:02:16.559Z,0.60
2023-07-18T10:04:43.476Z,0.60
2023-07-18T10:07:10.463Z,0.50
2023-07-18T10:09:37.997Z,0.60
2023-07-18T10:12:04.553Z,0.70
2023-07-18T10:14:51.053Z,0.70
2023-07-18T10:17:34.013Z,0.60
2023-07-18T10:20:11.380Z,0.73
2023-07-18T10:22:45.880Z,0.52
2023-07-18T10:25:12.932Z,0.52
2023-07-18T10:27:44.393Z,0.70
2023-07-18T10:30:17.151Z,0.80
2023-07-18T10:32:57.884Z,1.10
2023-07-18T10:35:27.495Z,0.95
2023-07-18T10:37:56.725Z,1.52
2023-07-18T10:40:44.429Z,1.13
2023-07-18T10:43:12.473Z,1.30
2023-07-18T10:45:40.724Z,1.17
2023-07-18T10:48:15.308Z,1.30
2023-07-18T10:50:43.038Z,1.40
2023-07-18T10:53:20.652Z,1.50
2023-07-18T10:55:48.282Z,1.50
2023-07-18T10:58:19.871Z,1.05
2023-07-18T11:00:47.652Z,1.25
2023-07-18T11:03:24.256Z,1.60
2023-07-18T11:05:52.054Z,1.20
2023-07-18T11:08:29.101Z,1.85
2023-07-18T11:11:01.099Z,1.20
2023-07-18T11:13:31.135Z,1.10
2023-07-18T11:16:07.736Z,1.13
2023-07-18T11:18:43.415Z,1.00
2023-07-18T11:21:11.258Z,1.00
2023-07-18T11:23:38.952Z,0.95
2023-07-18T11:26:19.312Z,0.80
2023-07-18T11:28:50.490Z,1.08
2023-07-18T11:31:43.389Z,0.97
2023-07-18T11:34:10.622Z,0.98
2023-07-18T11:36:38.574Z,0.80
2023-07-18T11:39:21.012Z,0.70
2023-07-18T11:41:49.023Z,1.20
2023-07-18T11:44:25.116Z,0.80
2023-07-18T11:46:53.122Z,0.80
2023-07-18T11:49:36.312Z,1.17
2023-07-18T11:52:10.042Z,1.05
2023-07-18T11:54:37.256Z,0.65
2023-07-18T11:57:05.274Z,0.80
2023-07-18T11:59:32.311Z,1.00
2023-07-18T12:01:58.958Z,0.60
2023-07-18T12:04:25.637Z,0.70
2023-07-18T12:06:52.256Z,0.60
2023-07-18T12:09:18.854Z,0.80
2023-07-18T12:11:45.572Z,1.42
2023-07-18T12:14:12.382Z,0.77
2023-07-18T12:16:40.096Z,0.80
2023-07-18T12:19:06.917Z,0.80
2023-07-18T12:21:33.497Z,0.87
2023-07-18T12:24:00.067Z,0.60
2023-07-18T12:26:26.748Z,0.90
2023-07-18T12:28:55.339Z,0.70
2023-07-18T12:31:22.887Z,1.60
2023-07-18T12:33:49.879Z,0.70
2023-07-18T12:36:16.468Z,0.80
2023-07-18T12:38:43.040Z,1.58
2023-07-18T12:41:09.627Z,0.70
2023-07-18T12:43:36.226Z,1.05
2023-07-18T12:46:02.776Z,0.60
2023-07-18T12:48:29.382Z,0.95
2023-07-18T12:50:55.952Z,0.80
2023-07-18T12:53:22.517Z,0.98
2023-07-18T12:55:49.080Z,0.90
2023-07-18T12:58:15.716Z,1.07
2023-07-18T13:00:42.269Z,0.80
2023-07-18T13:03:09.027Z,1.00
2023-07-18T13:05:35.641Z,0.73
2023-07-18T13:08:02.209Z,0.70
2023-07-18T13:10:28.808Z,0.70
2023-07-18T13:12:55.378Z,0.40
2023-07-18T13:15:22.503Z,0.68
2023-07-18T13:17:49.337Z,0.73
2023-07-18T13:20:16.854Z,0.80
2023-07-18T13:22:43.583Z,0.60
2023-07-18T13:25:11.234Z,0.50
2023-07-18T13:27:39.810Z,0.60
2023-07-18T13:30:08.356Z,0.77
2023-07-18T13:32:35.070Z,0.52
2023-07-18T13:35:01.783Z,0.63
2023-07-18T13:37:28.367Z,0.60
2023-07-18T13:39:54.889Z,0.60
2023-07-18T13:42:21.532Z,0.55
2023-07-18T13:44:48.185Z,0.80
2023-07-18T13:47:15.690Z,0.77
2023-07-18T13:52:12.283Z,0.50
2023-07-18T13:54:38.828Z,0.68
2023-07-18T13:57:05.678Z,0.60
2023-07-18T13:59:32.215Z,0.40
2023-07-18T14:01:58.844Z,0.50
2023-07-18T14:04:25.606Z,0.40
2023-07-18T14:06:52.208Z,0.80
2023-07-18T14:09:18.776Z,0.80
2023-07-18T14:11:45.396Z,0.40
2023-07-18T14:14:11.962Z,0.60
2023-07-18T14:16:38.603Z,0.63
2023-07-18T14:19:05.331Z,0.60
2023-07-18T14:21:31.900Z,0.55
2023-07-18T14:23:58.473Z,0.60
2023-07-18T14:26:25.094Z,0.45
2023-07-18T14:28:51.637Z,0.70
2023-07-18T14:31:18.234Z,0.50
2023-07-18T14:33:59.477Z,1.23
2023-07-18T14:36:31.904Z,0.77
2023-07-18T14:38:58.510Z,0.63
2023-07-18T14:41:25.096Z,0.63
2023-07-18T14:43:51.672Z,0.70
2023-07-18T14:46:18.697Z,0.65
2023-07-18T14:48:45.608Z,0.70
2023-07-18T14:51:12.191Z,0.50
2023-07-18T14:53:38.811Z,0.80
2023-07-18T14:56:05.533Z,0.70
2023-07-18T14:58:32.164Z,0.70
2023-07-18T15:00:58.700Z,0.67
2023-07-18T15:03:26.068Z,0.50
2023-07-18T15:05:52.835Z,0.68
2023-07-18T15:08:19.403Z,0.60
2023-07-18T15:10:46.329Z,0.60
2023-07-18T15:13:12.879Z,0.60
2023-07-18T15:15:39.596Z,0.50
2023-07-18T15:18:06.249Z,0.70
2023-07-18T15:20:33.286Z,0.55
2023-07-18T15:23:00.001Z,0.82
2023-07-18T15:25:30.036Z,0.80
2023-07-18T15:27:56.633Z,0.85
2023-07-18T15:30:23.233Z,0.85
2023-07-18T15:32:50.029Z,0.60
2023-07-18T15:35:16.648Z,0.57
2023-07-18T15:37:43.367Z,0.70
2023-07-18T15:40:10.591Z,0.50
2023-07-18T15:42:38.524Z,0.60
2023-07-18T15:45:05.406Z,0.60
2023-07-18T15:47:31.996Z,0.40
2023-07-18T15:49:58.570Z,0.57
2023-07-18T15:52:27.496Z,0.40
2023-07-18T15:54:54.310Z,0.50
2023-07-18T15:57:21.345Z,0.70
2023-07-18T15:59:47.892Z,0.40
2023-07-18T16:02:15.228Z,0.47
2023-07-18T16:04:41.944Z,0.40
2023-07-18T16:07:08.568Z,0.30
2023-07-18T16:09:48.456Z,0.30
2023-07-18T16:12:15.250Z,0.32
2023-07-18T16:14:41.764Z,0.43
2023-07-18T16:17:10.473Z,0.30
2023-07-18T16:19:40.099Z,0.40
2023-07-18T16:22:06.820Z,0.30
2023-07-18T16:24:33.431Z,0.40
2023-07-18T16:27:00.192Z,0.53
2023-07-18T16:29:27.672Z,0.40
2023-07-18T16:31:54.258Z,0.40
2023-07-18T16:34:20.838Z,0.50
2023-07-18T16:36:47.430Z,0.55
2023-07-18T16:39:14.026Z,0.77
2023-07-18T16:41:40.651Z,0.55
2023-07-18T16:44:07.175Z,0.30
2023-07-18T16:46:34.291Z,0.40
2023-07-18T16:49:02.134Z,0.40
2023-07-18T16:51:28.740Z,0.50
2023-07-18T16:53:55.342Z,0.57
2023-07-18T16:56:23.247Z,0.50
2023-07-18T16:58:49.811Z,0.30
2023-07-18T17:01:16.933Z,0.50
2023-07-18T17:03:43.827Z,0.60
2023-07-18T17:06:10.653Z,0.65
2023-07-18T17:08:37.232Z,0.70
2023-07-18T17:11:04.193Z,1.00
2023-07-18T17:13:30.869Z,1.23
2023-07-18T17:15:57.698Z,1.10
2023-07-18T17:18:24.237Z,1.00
2023-07-18T17:20:50.793Z,1.45
2023-07-18T17:23:17.347Z,1.50
2023-07-18T17:25:44.124Z,1.25
2023-07-18T17:28:10.662Z,1.37
2023-07-18T17:30:37.296Z,1.42
2023-07-18T17:33:03.942Z,1.48
2023-07-18T17:35:30.504Z,1.70
2023-07-18T17:37:57.090Z,1.45
2023-07-18T17:40:23.665Z,1.70
2023-07-18T17:42:50.192Z,1.95
2023-07-18T17:45:16.766Z,1.60
2023-07-18T17:47:47.842Z,1.30
2023-07-18T17:50:14.795Z,1.75
2023-07-18T17:52:43.136Z,1.70
2023-07-18T17:55:10.769Z,1.48
2023-07-18T17:57:38.012Z,1.67
2023-07-18T18:00:05.572Z,1.45
2023-07-18T18:02:32.998Z,1.50
2023-07-18T18:05:02.915Z,1.77
2023-07-18T18:07:29.579Z,1.75
2023-07-18T18:09:56.625Z,1.35
2023-07-18T18:12:24.697Z,1.60
2023-07-18T18:14:51.619Z,1.42
2023-07-18T18:17:18.239Z,1.37
2023-07-18T18:19:47.637Z,1.40
2023-07-18T18:22:14.637Z,1.50
2023-07-18T18:24:42.161Z,1.20
2023-07-18T18:27:09.167Z,1.33
2023-07-18T18:29:35.746Z,1.27
2023-07-18T18:32:04.409Z,1.35
2023-07-18T18:34:31.371Z,1.38
2023-07-18T18:36:58.005Z,0.90
2023-07-18T18:39:24.809Z,1.00
2023-07-18T18:41:52.093Z,1.30
2023-07-18T18:44:18.649Z,0.93
2023-07-18T18:46:45.265Z,1.05
2023-07-18T18:49:25.178Z,1.83
2023-07-18T18:51:53.721Z,1.00
2023-07-18T18:54:20.628Z,1.00
2023-07-18T18:56:47.262Z,0.90
2023-07-18T18:59:13.817Z,0.70
2023-07-18T19:01:40.401Z,0.95
2023-07-18T19:04:07.090Z,0.77
2023-07-18T19:06:33.700Z,1.20
2023-07-18T19:09:03.888Z,1.10
2023-07-18T19:11:30.464Z,0.85
2023-07-18T19:13:58.075Z,0.85
2023-07-18T19:16:37.724Z,0.80
2023-07-18T19:19:08.791Z,1.07
2023-07-18T19:21:35.569Z,0.85
2023-07-18T19:24:02.213Z,1.00
2023-07-18T19:26:28.859Z,0.70
2023-07-18T19:28:55.440Z,0.65
2023-07-18T19:31:22.346Z,0.70
2023-07-18T19:33:49.190Z,0.60
2023-07-18T19:36:15.893Z,0.80
2023-07-18T19:38:42.455Z,0.90
2023-07-18T19:41:09.036Z,0.70
2023-07-18T19:43:36.312Z,0.80
2023-07-18T19:46:03.678Z,0.50
2023-07-18T19:48:30.279Z,0.60
2023-07-18T19:50:56.812Z,0.57
2023-07-18T19:53:25.700Z,0.60
2023-07-18T19:55:52.384Z,0.80
2023-07-18T19:58:22.229Z,0.70
2023-07-18T20:00:48.813Z,0.68
2023-07-18T20:03:15.617Z,0.55
2023-07-18T20:05:42.309Z,0.60
2023-07-18T20:08:09.158Z,0.63
2023-07-18T20:10:36.459Z,0.60
2023-07-18T20:13:03.122Z,0.70
2023-07-18T20:15:29.684Z,1.00
2023-07-18T20:17:56.391Z,1.00
2023-07-18T20:20:23.102Z,0.60
2023-07-18T20:22:49.822Z,0.90
2023-07-18T20:25:16.518Z,0.75
2023-07-18T20:27:43.069Z,0.65
2023-07-18T20:30:09.767Z,0.90
2023-07-18T20:32:36.488Z,0.90
2023-07-18T20:35:03.229Z,0.60
2023-07-18T20:37:29.835Z,0.80
2023-07-18T20:39:56.444Z,0.98
2023-07-18T20:42:22.966Z,0.80
2023-07-18T20:44:49.516Z,0.90
2023-07-18T20:47:16.190Z,1.00
2023-07-18T20:49:42.768Z,1.30
2023-07-18T20:52:10.057Z,1.20
2023-07-18T20:54:37.096Z,1.17
2023-07-18T20:57:04.188Z,0.90
2023-07-18T20:59:30.863Z,0.93
2023-07-18T21:01:57.635Z,1.00
2023-07-18T21:04:24.365Z,1.42
2023-07-18T21:06:51.017Z,1.08
2023-07-18T21:09:17.677Z,0.93
2023-07-18T21:11:45.018Z,1.27
2023-07-18T21:14:11.728Z,1.35
2023-07-18T21:16:38.398Z,1.25
2023-07-18T21:19:05.028Z,1.25
2023-07-18T21:21:31.640Z,1.50
2023-07-18T21:23:58.603Z,1.30
2023-07-18T21:26:25.321Z,1.05
2023-07-18T21:29:03.913Z,1.55
2023-07-18T21:31:31.130Z,1.55
2023-07-18T21:33:57.749Z,1.43
2023-07-18T21:36:24.372Z,1.52
2023-07-18T21:38:52.031Z,1.15
2023-07-18T21:41:20.485Z,1.20
2023-07-18T21:43:47.813Z,1.10
2023-07-18T21:46:15.307Z,1.00
2023-07-18T21:48:41.953Z,1.20
2023-07-18T21:51:08.500Z,1.00
2023-07-18T21:53:35.046Z,1.10
2023-07-18T21:56:03.850Z,1.30
2023-07-18T21:58:30.542Z,1.00
2023-07-18T22:00:57.163Z,1.20
2023-07-18T22:03:23.811Z,1.30
2023-07-18T22:05:50.419Z,1.13
2023-07-18T22:08:17.016Z,1.50
2023-07-18T22:10:43.639Z,1.23
2023-07-18T22:13:12.297Z,1.50
2023-07-18T22:15:39.224Z,1.23
2023-07-18T22:18:20.226Z,1.45
2023-07-18T22:20:53.093Z,1.50
2023-07-18T22:23:19.663Z,1.47
2023-07-18T22:25:52.947Z,1.40
2023-07-18T22:28:27.322Z,1.40
2023-07-18T22:30:54.623Z,1.50
2023-07-18T22:33:21.364Z,1.38
2023-07-18T22:35:48.032Z,1.30
2023-07-18T22:38:14.620Z,1.30
2023-07-18T22:40:41.270Z,1.27
2023-07-18T22:43:07.867Z,1.30
2023-07-18T22:45:34.417Z,1.55
2023-07-18T22:48:01.076Z,1.50
2023-07-18T22:50:27.801Z,1.92
2023-07-18T22:52:54.388Z,1.90
2023-07-18T22:55:20.963Z,1.63
2023-07-18T22:57:47.515Z,1.90
2023-07-18T23:00:14.289Z,2.00
2023-07-18T23:02:41.644Z,1.73
2023-07-18T23:05:08.755Z,2.10
2023-07-18T23:07:36.457Z,1.70
2023-07-18T23:10:03.188Z,1.88
2023-07-18T23:12:29.994Z,2.27
2023-07-18T23:14:56.569Z,1.67
2023-07-18T23:17:23.103Z,1.63
2023-07-18T23:19:49.694Z,1.67
2023-07-18T23:22:16.212Z,1.73
2023-07-18T23:24:42.803Z,1.40
2023-07-18T23:27:09.716Z,2.00
2023-07-18T23:29:36.331Z,1.60
2023-07-18T23:32:02.856Z,1.42
2023-07-18T23:34:29.438Z,1.88
2023-07-18T23:36:55.994Z,1.90
2023-07-18T23:39:22.815Z,2.10
2023-07-18T23:41:49.379Z,2.08
2023-07-18T23:44:16.617Z,1.80
2023-07-18T23:46:43.269Z,1.88
2023-07-18T23:49:09.861Z,1.90
2023-07-18T23:51:36.491Z,1.90
2023-07-18T23:54:03.065Z,1.70
2023-07-18T23:56:29.700Z,1.65
2023-07-18T23:58:56.261Z,1.80
